sensor_id;sensor_type;location;lat;lon;timestamp;temperature;humidity
42617;DHT22;28250;52.320;0.360;2024-01-15T00:01:21;1.30;99.90
42617;DHT22;28250;52.320;0.360;2024-01-15T00:03:48;1.20;99.90
42617;DHT22;28250;52.320;0.360;2024-01-15T00:06:14;1.30;99.90
42617;DHT22;28250;52.320;0.360;2024-01-15T00:08:41;1.30;99.90
42617;DHT22;28250;52.320;0.360;2024-01-15T00:11:09;1.20;99.90
42617;DHT22;28250;52.320;0.360;2024-01-15T00:13:35;1.20;99.90
42617;DHT22;28250;52.320;0.360;2024-01-15T00:16:04;1.30;99.90
42617;DHT22;28250;52.320;0.360;2024-01-15T00:18:31;1.10;99.90
42617;DHT22;28250;52.320;0.360;2024-01-15T00:20:57;1.10;99.90
42617;DHT22;28250;52.320;0.360;2024-01-15T00:23:23;1.10;99.90
42617;DHT22;28250;52.320;0.360;2024-01-15T00:25:51;1.10;99.90
42617;DHT22;28250;52.320;0.360;2024-01-15T00:28:17;1.00;99.90
42617;DHT22;28250;52.320;0.360;2024-01-15T00:30:43;1.00;99.90
42617;DHT22;28250;52.320;0.360;2024-01-15T00:33:09;0.90;99.90
42617;DHT22;28250;52.320;0.360;2024-01-15T00:35:38;0.80;99.90
42617;DHT22;28250;52.320;0.360;2024-01-15T00:38:04;0.80;99.90
42617;DHT22;28250;52.320;0.360;2024-01-15T00:40:30;0.80;99.90
42617;DHT22;28250;52.320;0.360;2024-01-15T00:42:56;0.70;99.90
42617;DHT22;28250;52.320;0.360;2024-01-15T00:45:22;0.70;99.90
42617;DHT22;28250;52.320;0.360;2024-01-15T00:47:48;0.70;99.90
42617;DHT22;28250;52.320;0.360;2024-01-15T00:50:14;0.60;99.90
42617;DHT22;28250;52.320;0.360;2024-01-15T00:52:41;0.50;99.90
42617;DHT22;28250;52.320;0.360;2024-01-15T00:55:07;0.50;99.90
42617;DHT22;28250;52.320;0.360;2024-01-15T00:57:33;0.30;99.90
42617;DHT22;28250;52.320;0.360;2024-01-15T00:59:59;0.30;99.90
42617;DHT22;28250;52.320;0.360;2024-01-15T01:02:26;0.30;99.90
42617;DHT22;28250;52.320;0.360;2024-01-15T01:04:52;0.20;99.90
42617;DHT22;28250;52.320;0.360;2024-01-15T01:07:18;0.10;99.90
42617;DHT22;28250;52.320;0.360;2024-01-15T01:09:45;0.10;99.90
42617;DHT22;28250;52.320;0.360;2024-01-15T01:12:11;0.10;99.90
42617;DHT22;28250;52.320;0.360;2024-01-15T01:14:37;0.00;99.90
42617;DHT22;28250;52.320;0.360;2024-01-15T01:17:03;-0.10;99.90
42617;DHT22;28250;52.320;0.360;2024-01-15T01:19:29;-0.10;99.90
42617;DHT22;28250;52.320;0.360;2024-01-15T01:21:56;-0.20;99.90
42617;DHT22;28250;52.320;0.360;2024-01-15T01:24:22;-0.10;99.90
42617;DHT22;28250;52.320;0.360;2024-01-15T01:26:48;-0.20;99.90
42617;DHT22;28250;52.320;0.360;2024-01-15T01:29:14;-0.20;99.90
42617;DHT22;28250;52.320;0.360;2024-01-15T01:31:44;-0.30;99.90
42617;DHT22;28250;52.320;0.360;2024-01-15T01:34:14;-0.30;99.90
42617;DHT22;28250;52.320;0.360;2024-01-15T01:36:41;-0.20;99.90
42617;DHT22;28250;52.320;0.360;2024-01-15T01:39:08;-0.30;99.90
42617;DHT22;28250;52.320;0.360;2024-01-15T01:41:35;-0.30;99.90
42617;DHT22;28250;52.320;0.360;2024-01-15T01:44:01;-0.30;99.90
42617;DHT22;28250;52.320;0.360;2024-01-15T01:46:28;-0.30;99.90
42617;DHT22;28250;52.320;0.360;2024-01-15T01:48:55;-0.30;99.90
42617;DHT22;28250;52.320;0.360;2024-01-15T01:51:22;-0.30;99.90
42617;DHT22;28250;52.320;0.360;2024-01-15T01:53:49;-0.30;99.90
42617;DHT22;28250;52.320;0.360;2024-01-15T01:56:17;-0.40;99.90
42617;DHT22;28250;52.320;0.360;2024-01-15T01:58:44;-0.40;99.90
42617;DHT22;28250;52.320;0.360;2024-01-15T02:01:12;-0.50;99.90
42617;DHT22;28250;52.320;0.360;2024-01-15T02:03:38;-0.50;99.90
42617;DHT22;28250;52.320;0.360;2024-01-15T02:06:09;-0.60;99.90
42617;DHT22;28250;52.320;0.360;2024-01-15T02:08:37;-0.60;99.90
42617;DHT22;28250;52.320;0.360;2024-01-15T02:11:03;-0.60;99.90
42617;DHT22;28250;52.320;0.360;2024-01-15T02:13:29;-0.60;99.90
42617;DHT22;28250;52.320;0.360;2024-01-15T02:15:55;-0.60;99.90
42617;DHT22;28250;52.320;0.360;2024-01-15T02:18:22;-0.50;99.90
42617;DHT22;28250;52.320;0.360;2024-01-15T02:20:48;-0.40;99.90
42617;DHT22;28250;52.320;0.360;2024-01-15T02:23:14;-0.30;99.90
42617;DHT22;28250;52.320;0.360;2024-01-15T02:25:43;-0.30;99.90
42617;DHT22;28250;52.320;0.360;2024-01-15T02:28:13;-0.20;99.90
42617;DHT22;28250;52.320;0.360;2024-01-15T02:30:42;-0.30;99.90
42617;DHT22;28250;52.320;0.360;2024-01-15T02:33:09;-0.20;99.90
42617;DHT22;28250;52.320;0.360;2024-01-15T02:35:36;-0.30;99.90
42617;DHT22;28250;52.320;0.360;2024-01-15T02:38:03;-0.30;99.90
42617;DHT22;28250;52.320;0.360;2024-01-15T02:40:32;-0.20;99.90
42617;DHT22;28250;52.320;0.360;2024-01-15T02:42:59;-0.20;99.90
42617;DHT22;28250;52.320;0.360;2024-01-15T02:45:25;-0.20;99.90
42617;DHT22;28250;52.320;0.360;2024-01-15T02:47:51;-0.30;99.90
42617;DHT22;28250;52.320;0.360;2024-01-15T02:50:17;-0.40;99.90
42617;DHT22;28250;52.320;0.360;2024-01-15T02:52:44;-0.50;99.90
42617;DHT22;28250;52.320;0.360;2024-01-15T02:55:10;-0.60;99.90
42617;DHT22;28250;52.320;0.360;2024-01-15T02:57:36;-0.60;99.90
42617;DHT22;28250;52.320;0.360;2024-01-15T03:00:02;-0.70;99.90
42617;DHT22;28250;52.320;0.360;2024-01-15T03:02:29;-0.70;99.90
42617;DHT22;28250;52.320;0.360;2024-01-15T03:04:58;-0.80;99.90
42617;DHT22;28250;52.320;0.360;2024-01-15T03:07:25;-1.00;99.90
42617;DHT22;28250;52.320;0.360;2024-01-15T03:09:51;-1.00;99.90
42617;DHT22;28250;52.320;0.360;2024-01-15T03:12:17;-1.10;99.90
42617;DHT22;28250;52.320;0.360;2024-01-15T03:14:43;-1.20;99.90
42617;DHT22;28250;52.320;0.360;2024-01-15T03:17:09;-1.20;99.90
42617;DHT22;28250;52.320;0.360;2024-01-15T03:19:37;-1.30;99.90
42617;DHT22;28250;52.320;0.360;2024-01-15T03:22:03;-1.30;99.90
42617;DHT22;28250;52.320;0.360;2024-01-15T03:24:31;-1.30;99.90
42617;DHT22;28250;52.320;0.360;2024-01-15T03:26:57;-1.40;99.90
42617;DHT22;28250;52.320;0.360;2024-01-15T03:29:23;-1.40;99.90
42617;DHT22;28250;52.320;0.360;2024-01-15T03:31:49;-1.40;99.90
42617;DHT22;28250;52.320;0.360;2024-01-15T03:34:15;-1.40;99.90
42617;DHT22;28250;52.320;0.360;2024-01-15T03:36:41;-1.40;99.90
42617;DHT22;28250;52.320;0.360;2024-01-15T03:39:07;-1.40;99.90
42617;DHT22;28250;52.320;0.360;2024-01-15T03:41:34;-1.40;99.90
42617;DHT22;28250;52.320;0.360;2024-01-15T03:44:00;-1.40;99.90
42617;DHT22;28250;52.320;0.360;2024-01-15T03:46:27;-1.40;99.90
42617;DHT22;28250;52.320;0.360;2024-01-15T03:48:53;-1.50;99.90
42617;DHT22;28250;52.320;0.360;2024-01-15T03:51:19;-1.40;99.90
42617;DHT22;28250;52.320;0.360;2024-01-15T03:53:46;-1.40;99.90
42617;DHT22;28250;52.320;0.360;2024-01-15T03:56:12;-1.40;99.90
42617;DHT22;28250;52.320;0.360;2024-01-15T03:58:39;-1.40;99.90
42617;DHT22;28250;52.320;0.360;2024-01-15T04:01:12;-1.40;99.90
42617;DHT22;28250;52.320;0.360;2024-01-15T04:03:38;-1.40;99.90
42617;DHT22;28250;52.320;0.360;2024-01-15T04:06:04;-1.50;99.90
42617;DHT22;28250;52.320;0.360;2024-01-15T04:08:31;-1.50;99.90
42617;DHT22;28250;52.320;0.360;2024-01-15T04:10:57;-1.50;99.90
42617;DHT22;28250;52.320;0.360;2024-01-15T04:13:23;-1.60;99.90
42617;DHT22;28250;52.320;0.360;2024-01-15T04:15:49;-1.60;99.90
42617;DHT22;28250;52.320;0.360;2024-01-15T04:18:16;-1.50;99.90
42617;DHT22;28250;52.320;0.360;2024-01-15T04:20:43;-1.60;99.90
42617;DHT22;28250;52.320;0.360;2024-01-15T04:23:09;-1.60;99.90
42617;DHT22;28250;52.320;0.360;2024-01-15T04:25:35;-1.60;99.90
42617;DHT22;28250;52.320;0.360;2024-01-15T04:28:01;-1.60;99.90
42617;DHT22;28250;52.320;0.360;2024-01-15T04:30:28;-1.70;99.90
42617;DHT22;28250;52.320;0.360;2024-01-15T04:32:54;-1.70;99.90
42617;DHT22;28250;52.320;0.360;2024-01-15T04:35:20;-1.80;99.90
42617;DHT22;28250;52.320;0.360;2024-01-15T04:37:46;-1.80;99.90
42617;DHT22;28250;52.320;0.360;2024-01-15T04:40:12;-1.80;99.90
42617;DHT22;28250;52.320;0.360;2024-01-15T04:42:38;-1.70;99.90
42617;DHT22;28250;52.320;0.360;2024-01-15T04:45:04;-1.70;99.90
42617;DHT22;28250;52.320;0.360;2024-01-15T04:47:30;-1.60;99.90
42617;DHT22;28250;52.320;0.360;2024-01-15T04:49:57;-1.60;99.90
42617;DHT22;28250;52.320;0.360;2024-01-15T04:52:23;-1.50;99.90
42617;DHT22;28250;52.320;0.360;2024-01-15T04:54:49;-1.40;99.90
42617;DHT22;28250;52.320;0.360;2024-01-15T04:57:15;-1.50;99.90
42617;DHT22;28250;52.320;0.360;2024-01-15T04:59:41;-1.50;99.90
42617;DHT22;28250;52.320;0.360;2024-01-15T05:02:07;-1.40;99.90
42617;DHT22;28250;52.320;0.360;2024-01-15T05:04:33;-1.40;99.90
42617;DHT22;28250;52.320;0.360;2024-01-15T05:06:59;-1.40;99.90
42617;DHT22;28250;52.320;0.360;2024-01-15T05:09:25;-1.40;99.90
42617;DHT22;28250;52.320;0.360;2024-01-15T05:11:52;-1.40;99.90
42617;DHT22;28250;52.320;0.360;2024-01-15T05:14:18;-1.40;99.90
42617;DHT22;28250;52.320;0.360;2024-01-15T05:16:47;-1.40;99.90
42617;DHT22;28250;52.320;0.360;2024-01-15T05:19:14;-1.40;99.90
42617;DHT22;28250;52.320;0.360;2024-01-15T05:21:40;-1.30;99.90
42617;DHT22;28250;52.320;0.360;2024-01-15T05:24:06;-1.40;99.90
42617;DHT22;28250;52.320;0.360;2024-01-15T05:26:33;-1.40;99.90
42617;DHT22;28250;52.320;0.360;2024-01-15T05:28:59;-1.50;99.90
42617;DHT22;28250;52.320;0.360;2024-01-15T05:31:27;-1.50;99.90
42617;DHT22;28250;52.320;0.360;2024-01-15T05:33:56;-1.50;99.90
42617;DHT22;28250;52.320;0.360;2024-01-15T05:36:22;-1.50;99.90
42617;DHT22;28250;52.320;0.360;2024-01-15T05:38:48;-1.40;99.90
42617;DHT22;28250;52.320;0.360;2024-01-15T05:41:15;-1.40;99.90
42617;DHT22;28250;52.320;0.360;2024-01-15T05:43:41;-1.40;99.90
42617;DHT22;28250;52.320;0.360;2024-01-15T05:46:07;-1.40;99.90
42617;DHT22;28250;52.320;0.360;2024-01-15T05:48:33;-1.40;99.90
42617;DHT22;28250;52.320;0.360;2024-01-15T05:50:59;-1.30;99.90
42617;DHT22;28250;52.320;0.360;2024-01-15T05:53:26;-1.30;99.90
42617;DHT22;28250;52.320;0.360;2024-01-15T05:55:52;-1.30;99.90
42617;DHT22;28250;52.320;0.360;2024-01-15T05:58:18;-1.30;99.90
42617;DHT22;28250;52.320;0.360;2024-01-15T06:00:44;-1.40;99.90
42617;DHT22;28250;52.320;0.360;2024-01-15T06:03:12;-1.40;99.90
42617;DHT22;28250;52.320;0.360;2024-01-15T06:05:38;-1.40;99.90
42617;DHT22;28250;52.320;0.360;2024-01-15T06:08:05;-1.40;99.90
42617;DHT22;28250;52.320;0.360;2024-01-15T06:10:31;-1.40;99.90
42617;DHT22;28250;52.320;0.360;2024-01-15T06:12:57;-1.40;99.90
42617;DHT22;28250;52.320;0.360;2024-01-15T06:15:23;-1.40;99.90
42617;DHT22;28250;52.320;0.360;2024-01-15T06:17:49;-1.40;99.90
42617;DHT22;28250;52.320;0.360;2024-01-15T06:20:15;-1.50;99.90
42617;DHT22;28250;52.320;0.360;2024-01-15T06:22:42;-1.50;99.90
42617;DHT22;28250;52.320;0.360;2024-01-15T06:25:08;-1.50;99.90
42617;DHT22;28250;52.320;0.360;2024-01-15T06:27:34;-1.50;99.90
42617;DHT22;28250;52.320;0.360;2024-01-15T06:30:00;-1.50;99.90
42617;DHT22;28250;52.320;0.360;2024-01-15T06:32:26;-1.50;99.90
42617;DHT22;28250;52.320;0.360;2024-01-15T06:34:52;-1.50;99.90
42617;DHT22;28250;52.320;0.360;2024-01-15T06:37:18;-1.60;99.90
42617;DHT22;28250;52.320;0.360;2024-01-15T06:39:46;-1.60;99.90
42617;DHT22;28250;52.320;0.360;2024-01-15T06:42:12;-1.60;99.90
42617;DHT22;28250;52.320;0.360;2024-01-15T06:44:38;-1.60;99.90
42617;DHT22;28250;52.320;0.360;2024-01-15T06:47:05;-1.70;99.90
42617;DHT22;28250;52.320;0.360;2024-01-15T06:49:31;-1.70;99.90
42617;DHT22;28250;52.320;0.360;2024-01-15T06:51:57;-1.70;99.90
42617;DHT22;28250;52.320;0.360;2024-01-15T06:54:23;-1.70;99.90
42617;DHT22;28250;52.320;0.360;2024-01-15T06:56:49;-1.70;99.90
42617;DHT22;28250;52.320;0.360;2024-01-15T06:59:16;-1.80;99.90
42617;DHT22;28250;52.320;0.360;2024-01-15T07:01:42;-1.80;99.90
42617;DHT22;28250;52.320;0.360;2024-01-15T07:04:08;-1.80;99.90
42617;DHT22;28250;52.320;0.360;2024-01-15T07:06:34;-1.80;99.90
42617;DHT22;28250;52.320;0.360;2024-01-15T07:09:00;-1.80;99.90
42617;DHT22;28250;52.320;0.360;2024-01-15T07:11:26;-1.80;99.90
42617;DHT22;28250;52.320;0.360;2024-01-15T07:13:52;-1.80;99.90
42617;DHT22;28250;52.320;0.360;2024-01-15T07:16:18;-1.80;99.90
42617;DHT22;28250;52.320;0.360;2024-01-15T07:18:44;-1.80;99.90
42617;DHT22;28250;52.320;0.360;2024-01-15T07:21:10;-1.80;99.90
42617;DHT22;28250;52.320;0.360;2024-01-15T07:23:36;-1.70;99.90
42617;DHT22;28250;52.320;0.360;2024-01-15T07:26:03;-1.70;99.90
42617;DHT22;28250;52.320;0.360;2024-01-15T07:28:31;-1.80;99.90
42617;DHT22;28250;52.320;0.360;2024-01-15T07:30:57;-1.80;99.90
42617;DHT22;28250;52.320;0.360;2024-01-15T07:33:23;-1.70;99.90
42617;DHT22;28250;52.320;0.360;2024-01-15T07:35:49;-1.80;99.90
42617;DHT22;28250;52.320;0.360;2024-01-15T07:38:15;-1.80;99.90
42617;DHT22;28250;52.320;0.360;2024-01-15T07:40:41;-1.80;99.90
42617;DHT22;28250;52.320;0.360;2024-01-15T07:43:07;-1.80;99.90
42617;DHT22;28250;52.320;0.360;2024-01-15T07:45:34;-1.80;99.90
42617;DHT22;28250;52.320;0.360;2024-01-15T07:48:00;-1.80;99.90
42617;DHT22;28250;52.320;0.360;2024-01-15T07:50:26;-1.80;99.90
42617;DHT22;28250;52.320;0.360;2024-01-15T07:52:52;-1.80;99.90
42617;DHT22;28250;52.320;0.360;2024-01-15T07:55:18;-1.80;99.90
42617;DHT22;28250;52.320;0.360;2024-01-15T07:57:44;-1.80;99.90
42617;DHT22;28250;52.320;0.360;2024-01-15T08:00:11;-1.80;99.90
42617;DHT22;28250;52.320;0.360;2024-01-15T08:02:38;-1.80;99.90
42617;DHT22;28250;52.320;0.360;2024-01-15T08:05:04;-1.80;99.90
42617;DHT22;28250;52.320;0.360;2024-01-15T08:07:31;-1.80;99.90
42617;DHT22;28250;52.320;0.360;2024-01-15T08:09:57;-1.70;99.90
42617;DHT22;28250;52.320;0.360;2024-01-15T08:12:24;-1.70;99.90
42617;DHT22;28250;52.320;0.360;2024-01-15T08:14:50;-1.60;99.90
42617;DHT22;28250;52.320;0.360;2024-01-15T08:17:16;-1.60;99.90
42617;DHT22;28250;52.320;0.360;2024-01-15T08:19:42;-1.50;99.90
42617;DHT22;28250;52.320;0.360;2024-01-15T08:22:09;-1.30;99.90
42617;DHT22;28250;52.320;0.360;2024-01-15T08:24:35;-1.20;99.90
42617;DHT22;28250;52.320;0.360;2024-01-15T08:27:01;-1.20;99.90
42617;DHT22;28250;52.320;0.360;2024-01-15T08:29:28;-1.20;99.90
42617;DHT22;28250;52.320;0.360;2024-01-15T08:31:54;-1.10;99.90
42617;DHT22;28250;52.320;0.360;2024-01-15T08:34:20;-1.00;99.90
42617;DHT22;28250;52.320;0.360;2024-01-15T08:36:46;-0.90;99.90
42617;DHT22;28250;52.320;0.360;2024-01-15T08:39:12;-0.90;99.90
42617;DHT22;28250;52.320;0.360;2024-01-15T08:41:38;-0.80;99.90
42617;DHT22;28250;52.320;0.360;2024-01-15T08:44:04;-0.80;99.90
42617;DHT22;28250;52.320;0.360;2024-01-15T08:46:30;-0.70;99.90
42617;DHT22;28250;52.320;0.360;2024-01-15T08:48:56;-0.70;99.90
42617;DHT22;28250;52.320;0.360;2024-01-15T08:51:22;-0.60;99.90
42617;DHT22;28250;52.320;0.360;2024-01-15T08:53:48;-0.60;99.90
42617;DHT22;28250;52.320;0.360;2024-01-15T08:56:15;-0.60;99.90
42617;DHT22;28250;52.320;0.360;2024-01-15T08:58:41;-0.60;99.90
42617;DHT22;28250;52.320;0.360;2024-01-15T09:01:07;-0.50;99.90
42617;DHT22;28250;52.320;0.360;2024-01-15T09:03:33;-0.50;99.90
42617;DHT22;28250;52.320;0.360;2024-01-15T09:05:59;-0.50;99.90
42617;DHT22;28250;52.320;0.360;2024-01-15T09:08:25;-0.50;99.90
42617;DHT22;28250;52.320;0.360;2024-01-15T09:10:53;-0.40;99.90
42617;DHT22;28250;52.320;0.360;2024-01-15T09:13:19;-0.40;99.90
42617;DHT22;28250;52.320;0.360;2024-01-15T09:15:45;-0.30;99.90
42617;DHT22;28250;52.320;0.360;2024-01-15T09:18:11;-0.30;99.90
42617;DHT22;28250;52.320;0.360;2024-01-15T09:20:37;-0.30;99.90
42617;DHT22;28250;52.320;0.360;2024-01-15T09:23:04;-0.30;99.90
42617;DHT22;28250;52.320;0.360;2024-01-15T09:25:31;-0.20;99.90
42617;DHT22;28250;52.320;0.360;2024-01-15T09:28:05;-0.20;99.90
42617;DHT22;28250;52.320;0.360;2024-01-15T09:30:36;-0.10;99.90
42617;DHT22;28250;52.320;0.360;2024-01-15T09:33:05;0.00;99.90
42617;DHT22;28250;52.320;0.360;2024-01-15T09:35:32;-0.10;99.90
42617;DHT22;28250;52.320;0.360;2024-01-15T09:37:58;0.00;99.90
42617;DHT22;28250;52.320;0.360;2024-01-15T09:40:25;0.00;99.90
42617;DHT22;28250;52.320;0.360;2024-01-15T09:42:56;0.10;99.90
42617;DHT22;28250;52.320;0.360;2024-01-15T09:45:22;0.10;99.90
42617;DHT22;28250;52.320;0.360;2024-01-15T09:47:48;0.20;99.90
42617;DHT22;28250;52.320;0.360;2024-01-15T09:50:15;0.20;99.90
42617;DHT22;28250;52.320;0.360;2024-01-15T09:52:41;0.30;99.90
42617;DHT22;28250;52.320;0.360;2024-01-15T09:55:09;0.30;99.90
42617;DHT22;28250;52.320;0.360;2024-01-15T09:57:36;0.30;99.90
42617;DHT22;28250;52.320;0.360;2024-01-15T10:00:02;0.40;99.90
42617;DHT22;28250;52.320;0.360;2024-01-15T10:02:30;0.40;99.90
42617;DHT22;28250;52.320;0.360;2024-01-15T10:04:56;0.50;99.90
42617;DHT22;28250;52.320;0.360;2024-01-15T10:07:23;0.50;99.90
42617;DHT22;28250;52.320;0.360;2024-01-15T10:09:51;0.50;99.90
42617;DHT22;28250;52.320;0.360;2024-01-15T10:12:17;0.60;99.90
42617;DHT22;28250;52.320;0.360;2024-01-15T10:14:43;0.60;99.90
42617;DHT22;28250;52.320;0.360;2024-01-15T10:17:14;0.60;99.90
42617;DHT22;28250;52.320;0.360;2024-01-15T10:19:40;0.70;99.90
42617;DHT22;28250;52.320;0.360;2024-01-15T10:22:10;0.70;99.90
42617;DHT22;28250;52.320;0.360;2024-01-15T10:24:36;0.70;99.90
42617;DHT22;28250;52.320;0.360;2024-01-15T10:27:10;0.80;99.90
42617;DHT22;28250;52.320;0.360;2024-01-15T10:29:37;0.80;99.90
42617;DHT22;28250;52.320;0.360;2024-01-15T10:32:06;0.90;99.90
42617;DHT22;28250;52.320;0.360;2024-01-15T10:34:38;0.90;99.90
42617;DHT22;28250;52.320;0.360;2024-01-15T10:37:07;0.90;99.90
42617;DHT22;28250;52.320;0.360;2024-01-15T10:39:33;1.00;99.90
42617;DHT22;28250;52.320;0.360;2024-01-15T10:42:00;1.00;99.90
42617;DHT22;28250;52.320;0.360;2024-01-15T10:44:26;1.00;99.90
42617;DHT22;28250;52.320;0.360;2024-01-15T10:46:53;1.00;99.90
42617;DHT22;28250;52.320;0.360;2024-01-15T10:49:20;1.10;99.90
42617;DHT22;28250;52.320;0.360;2024-01-15T10:51:47;1.20;99.90
42617;DHT22;28250;52.320;0.360;2024-01-15T10:54:14;1.30;99.90
42617;DHT22;28250;52.320;0.360;2024-01-15T10:56:41;1.30;99.90
42617;DHT22;28250;52.320;0.360;2024-01-15T10:59:08;1.30;99.90
42617;DHT22;28250;52.320;0.360;2024-01-15T11:01:36;1.40;99.90
42617;DHT22;28250;52.320;0.360;2024-01-15T11:04:03;1.40;99.90
42617;DHT22;28250;52.320;0.360;2024-01-15T11:06:47;1.40;99.90
42617;DHT22;28250;52.320;0.360;2024-01-15T11:09:16;1.40;99.90
42617;DHT22;28250;52.320;0.360;2024-01-15T11:11:45;1.60;99.90
42617;DHT22;28250;52.320;0.360;2024-01-15T11:14:47;1.60;99.90
42617;DHT22;28250;52.320;0.360;2024-01-15T11:17:16;1.70;99.90
42617;DHT22;28250;52.320;0.360;2024-01-15T11:19:49;1.60;99.90
42617;DHT22;28250;52.320;0.360;2024-01-15T11:24:57;1.60;99.90
42617;DHT22;28250;52.320;0.360;2024-01-15T11:27:44;1.70;99.90
42617;DHT22;28250;52.320;0.360;2024-01-15T11:30:19;1.70;99.90
42617;DHT22;28250;52.320;0.360;2024-01-15T11:32:46;1.80;99.90
42617;DHT22;28250;52.320;0.360;2024-01-15T11:35:13;1.70;99.90
42617;DHT22;28250;52.320;0.360;2024-01-15T11:40:22;2.00;99.90
42617;DHT22;28250;52.320;0.360;2024-01-15T11:43:10;2.10;99.90
42617;DHT22;28250;52.320;0.360;2024-01-15T11:45:36;2.00;99.90
42617;DHT22;28250;52.320;0.360;2024-01-15T11:48:11;2.00;99.90
42617;DHT22;28250;52.320;0.360;2024-01-15T11:50:46;2.00;99.90
42617;DHT22;28250;52.320;0.360;2024-01-15T11:53:27;2.00;99.90
42617;DHT22;28250;52.320;0.360;2024-01-15T11:56:15;2.10;99.90
42617;DHT22;28250;52.320;0.360;2024-01-15T11:58:44;2.00;99.90
42617;DHT22;28250;52.320;0.360;2024-01-15T12:01:11;2.10;99.90
42617;DHT22;28250;52.320;0.360;2024-01-15T12:03:37;2.30;99.90
42617;DHT22;28250;52.320;0.360;2024-01-15T12:06:06;2.30;99.90
42617;DHT22;28250;52.320;0.360;2024-01-15T12:08:33;2.20;99.90
42617;DHT22;28250;52.320;0.360;2024-01-15T12:10:59;2.20;99.90
42617;DHT22;28250;52.320;0.360;2024-01-15T12:13:27;2.20;99.90
42617;DHT22;28250;52.320;0.360;2024-01-15T12:15:54;2.20;99.90
42617;DHT22;28250;52.320;0.360;2024-01-15T12:18:20;2.20;99.90
42617;DHT22;28250;52.320;0.360;2024-01-15T12:20:46;2.10;99.90
42617;DHT22;28250;52.320;0.360;2024-01-15T12:23:12;2.10;99.90
42617;DHT22;28250;52.320;0.360;2024-01-15T12:25:42;2.40;99.90
42617;DHT22;28250;52.320;0.360;2024-01-15T12:28:08;2.20;99.90
42617;DHT22;28250;52.320;0.360;2024-01-15T12:30:35;2.30;99.90
42617;DHT22;28250;52.320;0.360;2024-01-15T12:33:07;2.40;99.90
42617;DHT22;28250;52.320;0.360;2024-01-15T12:35:34;2.50;99.90
42617;DHT22;28250;52.320;0.360;2024-01-15T12:38:01;2.30;99.90
42617;DHT22;28250;52.320;0.360;2024-01-15T12:40:31;2.40;99.90
42617;DHT22;28250;52.320;0.360;2024-01-15T12:43:00;2.20;99.90
42617;DHT22;28250;52.320;0.360;2024-01-15T12:45:26;2.30;99.90
42617;DHT22;28250;52.320;0.360;2024-01-15T12:47:53;2.30;99.90
42617;DHT22;28250;52.320;0.360;2024-01-15T12:50:24;2.40;99.90
42617;DHT22;28250;52.320;0.360;2024-01-15T12:52:51;2.40;99.90
42617;DHT22;28250;52.320;0.360;2024-01-15T12:55:17;2.30;99.90
42617;DHT22;28250;52.320;0.360;2024-01-15T12:57:43;2.40;99.90
42617;DHT22;28250;52.320;0.360;2024-01-15T13:00:11;2.30;99.90
42617;DHT22;28250;52.320;0.360;2024-01-15T13:02:41;2.30;99.90
42617;DHT22;28250;52.320;0.360;2024-01-15T13:05:09;2.40;99.90
42617;DHT22;28250;52.320;0.360;2024-01-15T13:07:36;2.20;99.90
42617;DHT22;28250;52.320;0.360;2024-01-15T13:10:04;2.30;99.90
42617;DHT22;28250;52.320;0.360;2024-01-15T13:12:31;2.40;99.90
42617;DHT22;28250;52.320;0.360;2024-01-15T13:14:58;2.40;99.90
42617;DHT22;28250;52.320;0.360;2024-01-15T13:17:24;2.40;99.90
42617;DHT22;28250;52.320;0.360;2024-01-15T13:19:50;2.40;99.90
42617;DHT22;28250;52.320;0.360;2024-01-15T13:22:16;2.30;99.90
42617;DHT22;28250;52.320;0.360;2024-01-15T13:24:42;2.40;99.90
42617;DHT22;28250;52.320;0.360;2024-01-15T13:27:09;2.50;99.90
42617;DHT22;28250;52.320;0.360;2024-01-15T13:29:35;2.50;99.90
42617;DHT22;28250;52.320;0.360;2024-01-15T13:32:01;2.40;99.90
42617;DHT22;28250;52.320;0.360;2024-01-15T13:34:28;2.40;99.90
42617;DHT22;28250;52.320;0.360;2024-01-15T13:36:55;2.40;99.90
42617;DHT22;28250;52.320;0.360;2024-01-15T13:39:21;2.40;99.90
42617;DHT22;28250;52.320;0.360;2024-01-15T13:41:47;2.40;99.90
42617;DHT22;28250;52.320;0.360;2024-01-15T13:44:13;2.40;99.90
42617;DHT22;28250;52.320;0.360;2024-01-15T13:46:39;2.40;99.90
42617;DHT22;28250;52.320;0.360;2024-01-15T13:49:05;2.50;99.90
42617;DHT22;28250;52.320;0.360;2024-01-15T13:51:32;2.50;99.90
42617;DHT22;28250;52.320;0.360;2024-01-15T13:53:58;2.50;99.90
42617;DHT22;28250;52.320;0.360;2024-01-15T13:56:24;2.40;99.90
42617;DHT22;28250;52.320;0.360;2024-01-15T13:58:50;2.40;99.90
42617;DHT22;28250;52.320;0.360;2024-01-15T14:01:17;2.30;99.90
42617;DHT22;28250;52.320;0.360;2024-01-15T14:03:43;2.40;99.90
42617;DHT22;28250;52.320;0.360;2024-01-15T14:06:10;2.30;99.90
42617;DHT22;28250;52.320;0.360;2024-01-15T14:08:36;2.40;99.90
42617;DHT22;28250;52.320;0.360;2024-01-15T14:11:04;2.30;99.90
42617;DHT22;28250;52.320;0.360;2024-01-15T14:13:32;2.30;99.90
42617;DHT22;28250;52.320;0.360;2024-01-15T14:15:59;2.40;99.90
42617;DHT22;28250;52.320;0.360;2024-01-15T14:18:27;2.30;99.90
42617;DHT22;28250;52.320;0.360;2024-01-15T14:20:53;2.30;99.90
42617;DHT22;28250;52.320;0.360;2024-01-15T14:23:20;2.40;99.90
42617;DHT22;28250;52.320;0.360;2024-01-15T14:25:46;2.30;99.90
42617;DHT22;28250;52.320;0.360;2024-01-15T14:28:12;2.30;99.90
42617;DHT22;28250;52.320;0.360;2024-01-15T14:30:38;2.30;99.90
42617;DHT22;28250;52.320;0.360;2024-01-15T14:33:04;2.30;99.90
42617;DHT22;28250;52.320;0.360;2024-01-15T14:35:30;2.30;99.90
42617;DHT22;28250;52.320;0.360;2024-01-15T14:37:56;2.20;99.90
42617;DHT22;28250;52.320;0.360;2024-01-15T14:40:27;2.20;99.90
42617;DHT22;28250;52.320;0.360;2024-01-15T14:42:53;2.20;99.90
42617;DHT22;28250;52.320;0.360;2024-01-15T14:45:20;2.20;99.90
42617;DHT22;28250;52.320;0.360;2024-01-15T14:47:46;2.10;99.90
42617;DHT22;28250;52.320;0.360;2024-01-15T14:50:12;2.10;99.90
42617;DHT22;28250;52.320;0.360;2024-01-15T14:52:39;2.10;99.90
42617;DHT22;28250;52.320;0.360;2024-01-15T14:55:07;2.10;99.90
42617;DHT22;28250;52.320;0.360;2024-01-15T14:57:35;2.00;99.90
42617;DHT22;28250;52.320;0.360;2024-01-15T15:00:01;2.00;99.90
42617;DHT22;28250;52.320;0.360;2024-01-15T15:02:27;2.00;99.90
42617;DHT22;28250;52.320;0.360;2024-01-15T15:04:54;2.00;99.90
42617;DHT22;28250;52.320;0.360;2024-01-15T15:07:23;1.90;99.90
42617;DHT22;28250;52.320;0.360;2024-01-15T15:09:49;1.90;99.90
42617;DHT22;28250;52.320;0.360;2024-01-15T15:12:16;1.80;99.90
42617;DHT22;28250;52.320;0.360;2024-01-15T15:14:43;1.80;99.90
42617;DHT22;28250;52.320;0.360;2024-01-15T15:17:09;1.80;99.90
42617;DHT22;28250;52.320;0.360;2024-01-15T15:19:35;1.70;99.90
42617;DHT22;28250;52.320;0.360;2024-01-15T15:22:02;1.70;99.90
42617;DHT22;28250;52.320;0.360;2024-01-15T15:24:28;1.70;99.90
42617;DHT22;28250;52.320;0.360;2024-01-15T15:26:54;1.60;99.90
42617;DHT22;28250;52.320;0.360;2024-01-15T15:29:20;1.60;99.90
42617;DHT22;28250;52.320;0.360;2024-01-15T15:31:48;1.60;99.90
42617;DHT22;28250;52.320;0.360;2024-01-15T15:34:14;1.50;99.90
42617;DHT22;28250;52.320;0.360;2024-01-15T15:36:41;1.50;99.90
42617;DHT22;28250;52.320;0.360;2024-01-15T15:39:07;1.50;99.90
42617;DHT22;28250;52.320;0.360;2024-01-15T15:41:33;1.40;99.90